Time;durP1;ratioP1;P1;durP2;ratioP2;P2;SDS_P1;SDS_P2;PMS_P1;PMS_P2;Temp;Humidity;BMP_temperature;BMP_pressure;BME280_temperature;BME280_humidity;BME280_pressure;Samples;Min_cycle;Max_cycle;Signal;HPM_P1;HPM_P2
2021/04/12 00:02:55;;;;;;;1.53;1.43;;;;;;;;;;5064133;28;20635;-71
2021/04/12 00:06:06;;;;;;;1.43;1.30;;;;;;;;;;5076465;28;20180;-71
2021/04/12 00:09:33;;;;;;;1.63;1.53;;;;;;;;;;5052217;28;20211;-71
2021/04/12 00:13:09;;;;;;;6.00;1.73;;;;;;;;;;5058852;28;20188;-70
2021/04/12 00:16:20;;;;;;;2.73;1.60;;;;;;;;;;5056316;28;20180;-71
2021/04/12 00:19:32;;;;;;;1.67;1.57;;;;;;;;;;5055991;28;20710;-71
2021/04/12 00:22:46;;;;;;;1.80;1.37;;;;;;;;;;5064515;28;20642;-71
2021/04/12 00:25:56;;;;;;;1.80;1.70;;;;;;;;;;5066266;28;20200;-70
2021/04/12 00:29:07;;;;;;;2.00;1.80;;;;;;;;;;5062521;28;20585;-70
2021/04/12 00:32:35;;;;;;;2.07;1.77;;;;;;;;;;5063634;28;20205;-71
2021/04/12 00:36:18;;;;;;;2.20;2.00;;;;;;;;;;5056188;28;20184;-71
2021/04/12 00:39:40;;;;;;;2.50;2.30;;;;;;;;;;5063588;28;20215;-70
2021/04/12 00:43:42;;;;;;;2.03;1.83;;;;;;;;;;5035414;28;20185;-70
2021/04/12 00:47:09;;;;;;;2.37;2.17;;;;;;;;;;5039579;28;20204;-71
2021/04/12 00:50:29;;;;;;;2.70;2.50;;;;;;;;;;5055556;28;20576;-70
2021/04/12 00:53:49;;;;;;;2.70;2.50;;;;;;;;;;5043283;28;20180;-70
2021/04/12 00:57:00;;;;;;;3.30;2.97;;;;;;;;;;5058011;28;20184;-70
2021/04/12 01:00:09;;;;;;;3.30;3.00;;;;;;;;;;5055386;28;20224;-71
2021/04/12 01:03:49;;;;;;;3.57;3.27;;;;;;;;;;5032324;28;20192;-71
2021/04/12 01:07:18;;;;;;;4.10;3.70;;;;;;;;;;5043378;28;20275;-71
2021/04/12 01:10:28;;;;;;;4.53;4.13;;;;;;;;;;5055136;28;20211;-70
2021/04/12 01:14:06;;;;;;;5.10;4.60;;;;;;;;;;5056818;28;20184;-71
2021/04/12 01:17:46;;;;;;;5.00;4.50;;;;;;;;;;5055350;28;20181;-71
2021/04/12 01:21:14;;;;;;;4.90;4.40;;;;;;;;;;5045034;28;20227;-71
2021/04/12 01:24:54;;;;;;;5.67;5.17;;;;;;;;;;5054622;28;20192;-71
2021/04/12 01:28:17;;;;;;;5.13;4.63;;;;;;;;;;5054631;28;20188;-71
2021/04/12 01:32:00;;;;;;;5.73;5.23;;;;;;;;;;5055125;28;20200;-71
2021/04/12 01:35:33;;;;;;;6.60;5.90;;;;;;;;;;5072867;28;20188;-71
2021/04/12 01:38:42;;;;;;;5.60;5.00;;;;;;;;;;5054650;28;20211;-71
2021/04/12 01:42:00;;;;;;;5.50;5.00;;;;;;;;;;5042268;28;20212;-71
2021/04/12 01:45:19;;;;;;;5.50;5.00;;;;;;;;;;5054603;28;20188;-71
2021/04/12 01:48:37;;;;;;;6.43;4.80;;;;;;;;;;5042070;28;20180;-71
2021/04/12 01:52:00;;;;;;;4.80;4.30;;;;;;;;;;5070454;28;20196;-71
2021/04/12 01:55:34;;;;;;;4.47;4.07;;;;;;;;;;5058720;28;20196;-71
2021/04/12 01:58:44;;;;;;;6.07;4.40;;;;;;;;;;5042064;28;20686;-71
2021/04/12 02:02:19;;;;;;;6.10;4.30;;;;;;;;;;5054245;28;20208;-71
2021/04/12 02:05:38;;;;;;;4.73;4.27;;;;;;;;;;5054209;28;20181;-71
2021/04/12 02:08:54;;;;;;;4.40;4.00;;;;;;;;;;5052760;28;20227;-71
2021/04/12 02:12:36;;;;;;;5.27;4.10;;;;;;;;;;5072800;28;20184;-71
2021/04/12 02:16:08;;;;;;;4.90;4.40;;;;;;;;;;5041674;28;20192;-71
2021/04/12 02:19:40;;;;;;;4.20;3.47;;;;;;;;;;5053593;28;20227;-71
2021/04/12 02:23:13;;;;;;;3.60;3.30;;;;;;;;;;5064248;28;20211;-71
2021/04/12 02:26:36;;;;;;;4.27;3.80;;;;;;;;;;5063795;28;20200;-70
2021/04/12 02:30:22;;;;;;;3.90;3.50;;;;;;;;;;5041372;28;20216;-71
2021/04/12 02:33:45;;;;;;;4.80;3.87;;;;;;;;;;5053459;28;20176;-71
2021/04/12 02:37:15;;;;;;;4.90;4.40;;;;;;;;;;5067270;28;20192;-71
2021/04/12 02:40:40;;;;;;;5.10;4.60;;;;;;;;;;5073330;28;20689;-71
2021/04/12 02:44:00;;;;;;;5.80;5.20;;;;;;;;;;5073153;28;20183;-71
2021/04/12 02:47:08;;;;;;;5.47;4.97;;;;;;;;;;5068861;28;20192;-71
2021/04/12 02:50:28;;;;;;;5.30;4.80;;;;;;;;;;5048348;28;20230;-71
2021/04/12 02:53:51;;;;;;;7.73;5.60;;;;;;;;;;5073461;28;20175;-71
2021/04/12 02:57:29;;;;;;;7.17;6.00;;;;;;;;;;5060958;28;20180;-71
2021/04/12 03:01:05;;;;;;;5.83;5.33;;;;;;;;;;5073390;28;20171;-71
2021/04/12 03:04:26;;;;;;;5.63;5.07;;;;;;;;;;5059159;28;20183;-71
2021/04/12 03:07:49;;;;;;;6.07;5.50;;;;;;;;;;5065086;28;20184;-71
2021/04/12 03:11:21;;;;;;;7.27;6.27;;;;;;;;;;5040662;28;20531;-71
2021/04/12 03:14:31;;;;;;;6.47;5.80;;;;;;;;;;5029508;28;20188;-71
2021/04/12 03:18:01;;;;;;;6.60;6.00;;;;;;;;;;5053647;28;20196;-71
2021/04/12 03:21:08;;;;;;;6.53;5.93;;;;;;;;;;5060257;28;20183;-71
2021/04/12 03:24:23;;;;;;;6.43;5.87;;;;;;;;;;5053116;28;20188;-70
2021/04/12 03:27:43;;;;;;;6.40;5.80;;;;;;;;;;5049405;28;20191;-71
2021/04/12 03:30:53;;;;;;;6.40;5.87;;;;;;;;;;5073116;28;20175;-71
2021/04/12 03:34:23;;;;;;;7.63;6.80;;;;;;;;;;5040787;28;20643;-71
2021/04/12 03:37:42;;;;;;;6.97;6.27;;;;;;;;;;5054050;28;20191;-71
2021/04/12 03:41:02;;;;;;;7.47;6.77;;;;;;;;;;5060399;28;20192;-71
2021/04/12 03:44:48;;;;;;;6.63;6.03;;;;;;;;;;5060663;28;20176;-71
2021/04/12 03:48:15;;;;;;;6.30;5.70;;;;;;;;;;5072366;28;20199;-71
2021/04/12 03:51:25;;;;;;;5.47;4.93;;;;;;;;;;5069659;28;20199;-70
2021/04/12 03:54:47;;;;;;;5.90;5.30;;;;;;;;;;5059599;28;20195;-71
2021/04/12 03:58:05;;;;;;;5.13;4.53;;;;;;;;;;5072560;28;20184;-71
2021/04/12 04:01:30;;;;;;;5.13;4.63;;;;;;;;;;5071223;28;20203;-71
2021/04/12 04:05:06;;;;;;;5.27;4.77;;;;;;;;;;5069825;28;20188;-71
2021/04/12 04:08:22;;;;;;;5.67;5.07;;;;;;;;;;5052625;28;20177;-71
2021/04/12 04:11:36;;;;;;;4.40;4.00;;;;;;;;;;5052386;28;20539;-71
2021/04/12 04:15:10;;;;;;;5.40;4.90;;;;;;;;;;5053026;28;20192;-71
2021/04/12 04:18:53;;;;;;;4.70;4.30;;;;;;;;;;5056025;28;20662;-71
2021/04/12 04:22:01;;;;;;;7.83;6.40;;;;;;;;;;5056181;28;20570;-71
2021/04/12 04:25:28;;;;;;;9.80;7.63;;;;;;;;;;5050782;28;20195;-72
2021/04/12 04:28:48;;;;;;;5.63;5.13;;;;;;;;;;5051204;28;20219;-71
2021/04/12 04:31:55;;;;;;;4.10;3.73;;;;;;;;;;5063807;28;20180;-71
2021/04/12 04:35:21;;;;;;;4.23;3.83;;;;;;;;;;5061707;28;20195;-71
2021/04/12 04:38:46;;;;;;;3.70;3.40;;;;;;;;;;5043293;28;20185;-70
2021/04/12 04:42:36;;;;;;;4.53;4.13;;;;;;;;;;5043479;28;20555;-71
2021/04/12 04:45:59;;;;;;;3.90;3.60;;;;;;;;;;5074853;28;20199;-70
2021/04/12 04:49:36;;;;;;;4.60;4.20;;;;;;;;;;5074702;28;20717;-71
2021/04/12 04:52:46;;;;;;;4.67;4.17;;;;;;;;;;5065647;28;20598;-70
2021/04/12 04:56:14;;;;;;;8.40;4.37;;;;;;;;;;5050351;28;20569;-70
2021/04/12 04:59:43;;;;;;;4.33;3.40;;;;;;;;;;5066934;28;21001;-71
2021/04/12 05:03:05;;;;;;;3.27;2.97;;;;;;;;;;5060224;28;21186;-71
2021/04/12 05:06:17;;;;;;;2.60;2.40;;;;;;;;;;5074995;28;20593;-71
2021/04/12 05:09:53;;;;;;;8.40;2.50;;;;;;;;;;5064002;28;20645;-71
2021/04/12 05:13:08;;;;;;;2.13;1.90;;;;;;;;;;5074753;28;20542;-72
2021/04/12 05:16:33;;;;;;;2.47;1.70;;;;;;;;;;5061117;28;20602;-71
2021/04/12 05:20:09;;;;;;;2.70;2.50;;;;;;;;;;5062797;28;20626;-71
2021/04/12 05:23:26;;;;;;;2.70;2.50;;;;;;;;;;5069772;28;20625;-72
2021/04/12 05:26:42;;;;;;;2.80;2.60;;;;;;;;;;5073391;28;21128;-72
2021/04/12 05:29:55;;;;;;;2.70;2.50;;;;;;;;;;5058617;28;20626;-72
2021/04/12 05:33:05;;;;;;;2.77;2.53;;;;;;;;;;5058434;28;20973;-72
2021/04/12 05:36:35;;;;;;;2.77;2.57;;;;;;;;;;5042403;28;20543;-71
2021/04/12 05:39:58;;;;;;;2.63;2.43;;;;;;;;;;5041108;28;20646;-72
2021/04/12 05:43:21;;;;;;;2.93;2.73;;;;;;;;;;5054231;28;20595;-72
2021/04/12 05:46:54;;;;;;;3.60;3.30;;;;;;;;;;5053065;28;20570;-74
2021/04/12 05:49:58;;;;;;;3.33;2.97;;;;;;;;;;5071183;28;20656;-73
2021/04/12 05:53:27;;;;;;;2.83;2.63;;;;;;;;;;5061548;28;21175;-72
2021/04/12 05:57:08;;;;;;;2.47;2.27;;;;;;;;;;5047246;28;20617;-73
2021/04/12 06:00:33;;;;;;;1.90;1.80;;;;;;;;;;5034464;28;20633;-72
2021/04/12 06:04:12;;;;;;;2.30;2.10;;;;;;;;;;5051784;28;20622;-72
2021/04/12 06:08:03;;;;;;;2.20;1.80;;;;;;;;;;5069212;28;20621;-73
2021/04/12 06:11:39;;;;;;;3.23;2.77;;;;;;;;;;5054228;28;20591;-73
2021/04/12 06:15:04;;;;;;;3.10;2.80;;;;;;;;;;5030391;28;20590;-73
2021/04/12 06:18:23;;;;;;;2.33;2.13;;;;;;;;;;5066374;28;20594;-73
2021/04/12 06:21:52;;;;;;;2.40;2.20;;;;;;;;;;5061600;28;20543;-73
2021/04/12 06:25:05;;;;;;;2.07;1.90;;;;;;;;;;5073848;28;20881;-73
2021/04/12 06:28:29;;;;;;;5.53;2.80;;;;;;;;;;5073687;28;20539;-72
2021/04/12 06:31:43;;;;;;;2.20;2.00;;;;;;;;;;5048510;28;20586;-72
2021/04/12 06:35:06;;;;;;;2.03;1.87;;;;;;;;;;5057920;28;21144;-73
2021/04/12 06:38:21;;;;;;;2.60;1.90;;;;;;;;;;5029538;28;20531;-71
2021/04/12 06:41:59;;;;;;;1.70;1.60;;;;;;;;;;5053362;28;20595;-72
2021/04/12 06:45:28;;;;;;;1.90;1.77;;;;;;;;;;5069322;28;20948;-72
2021/04/12 06:49:10;;;;;;;1.70;1.60;;;;;;;;;;5035406;28;20650;-72
2021/04/12 06:52:44;;;;;;;2.40;1.63;;;;;;;;;;5052987;28;20606;-72
2021/04/12 06:55:54;;;;;;;1.67;1.57;;;;;;;;;;5053634;28;20548;-72
2021/04/12 06:59:17;;;;;;;1.30;1.20;;;;;;;;;;5050006;28;20645;-72
2021/04/12 07:02:49;;;;;;;2.00;1.90;;;;;;;;;;5060810;28;20591;-72
2021/04/12 07:06:36;;;;;;;1.80;1.53;;;;;;;;;;5055263;28;20606;-72
2021/04/12 07:10:20;;;;;;;1.70;1.60;;;;;;;;;;5040488;28;20646;-72
2021/04/12 07:13:52;;;;;;;3.57;2.43;;;;;;;;;;5046133;28;20577;-73
2021/04/12 07:17:28;;;;;;;2.07;1.50;;;;;;;;;;5071810;28;20606;-73
2021/04/12 07:20:51;;;;;;;2.03;1.93;;;;;;;;;;5042268;28;20598;-73
2021/04/12 07:24:20;;;;;;;1.37;1.17;;;;;;;;;;5049280;28;20626;-73
2021/04/12 07:27:59;;;;;;;2.00;1.80;;;;;;;;;;5046292;28;20598;-73
2021/04/12 07:31:22;;;;;;;1.90;1.70;;;;;;;;;;5036034;28;20578;-72
2021/04/12 07:34:57;;;;;;;1.47;1.37;;;;;;;;;;5059717;28;20527;-71
2021/04/12 07:38:53;;;;;;;1.37;1.23;;;;;;;;;;5048761;28;20577;-73
2021/04/12 07:42:35;;;;;;;1.83;1.63;;;;;;;;;;5038504;28;20626;-72
2021/04/12 07:46:23;;;;;;;2.27;1.77;;;;;;;;;;5041000;28;20582;-72
2021/04/12 07:50:07;;;;;;;1.50;1.40;;;;;;;;;;5046484;28;20631;-72
2021/04/12 07:53:32;;;;;;;2.37;2.07;;;;;;;;;;5067547;28;20593;-71
2021/04/12 07:57:01;;;;;;;3.30;2.70;;;;;;;;;;5056491;28;20590;-72
2021/04/12 08:00:53;;;;;;;2.57;2.30;;;;;;;;;;5044226;28;20637;-71
2021/04/12 08:04:26;;;;;;;3.27;2.53;;;;;;;;;;5063027;28;21202;-71
2021/04/12 08:07:42;;;;;;;2.83;2.20;;;;;;;;;;5075200;28;20586;-72
2021/04/12 08:11:29;;;;;;;3.03;2.70;;;;;;;;;;5046115;28;20623;-71
2021/04/12 08:15:02;;;;;;;3.00;2.43;;;;;;;;;;5059036;28;20605;-71
2021/04/12 08:18:30;;;;;;;2.50;2.30;;;;;;;;;;5072095;28;20589;-73
2021/04/12 08:22:02;;;;;;;2.23;2.03;;;;;;;;;;5053762;28;21004;-73
2021/04/12 08:25:55;;;;;;;9.97;6.10;;;;;;;;;;5060705;28;20566;-71
2021/04/12 08:29:43;;;;;;;4.00;3.17;;;;;;;;;;5068204;28;20642;-71
2021/04/12 08:33:13;;;;;;;8.67;5.33;;;;;;;;;;5043684;28;20551;-72
2021/04/12 08:36:45;;;;;;;5.43;4.10;;;;;;;;;;5065037;28;20589;-71
2021/04/12 08:40:30;;;;;;;6.30;3.17;;;;;;;;;;5041386;28;20629;-71
2021/04/12 08:43:54;;;;;;;2.73;2.53;;;;;;;;;;5052664;28;20621;-73
2021/04/12 08:47:16;;;;;;;3.00;2.70;;;;;;;;;;5074676;28;20586;-73
2021/04/12 08:50:30;;;;;;;3.87;3.10;;;;;;;;;;5075413;28;20640;-72
2021/04/12 08:54:08;;;;;;;3.37;2.80;;;;;;;;;;5050464;28;20574;-72
2021/04/12 08:57:36;;;;;;;10.83;9.57;;;;;;;;;;5043183;28;20913;-72
2021/04/12 09:00:46;;;;;;;4.33;3.63;;;;;;;;;;5032779;28;20571;-72
2021/04/12 09:04:06;;;;;;;5.60;4.80;;;;;;;;;;5062603;28;20630;-72
2021/04/12 09:07:29;;;;;;;4.10;3.70;;;;;;;;;;5060894;28;20594;-72
2021/04/12 09:10:45;;;;;;;4.93;4.23;;;;;;;;;;5054984;28;20591;-72
2021/04/12 09:14:31;;;;;;;4.70;4.10;;;;;;;;;;5032009;28;20528;-72
2021/04/12 09:17:57;;;;;;;4.33;3.60;;;;;;;;;;5068670;28;20562;-71
2021/04/12 09:21:36;;;;;;;4.50;3.70;;;;;;;;;;5049194;28;20590;-72
2021/04/12 09:24:56;;;;;;;7.67;5.40;;;;;;;;;;5056179;28;21180;-71
2021/04/12 09:28:20;;;;;;;15.70;10.07;;;;;;;;;;5059866;28;20606;-72
2021/04/12 09:32:07;;;;;;;8.13;6.07;;;;;;;;;;5069344;28;20590;-72
2021/04/12 09:36:03;;;;;;;9.70;6.97;;;;;;;;;;5065271;28;20579;-71
2021/04/12 09:39:35;;;;;;;6.07;4.90;;;;;;;;;;5032160;28;20645;-71
2021/04/12 09:42:51;;;;;;;5.13;4.20;;;;;;;;;;5066676;28;20590;-71
2021/04/12 09:46:38;;;;;;;4.90;3.53;;;;;;;;;;5044865;28;20587;-73
2021/04/12 09:50:27;;;;;;;3.70;3.30;;;;;;;;;;5054177;28;20662;-73
2021/04/12 09:54:23;;;;;;;3.47;3.17;;;;;;;;;;5054484;28;21145;-72
2021/04/12 09:57:54;;;;;;;3.60;3.00;;;;;;;;;;5042793;28;20981;-71
2021/04/12 10:01:21;;;;;;;3.70;3.27;;;;;;;;;;5070486;28;20597;-70
2021/04/12 10:04:57;;;;;;;4.20;3.50;;;;;;;;;;5072819;28;20626;-71
2021/04/12 10:08:18;;;;;;;4.93;3.43;;;;;;;;;;5032242;28;20591;-71
2021/04/12 10:11:38;;;;;;;3.83;3.43;;;;;;;;;;5037098;28;21144;-71
2021/04/12 10:14:52;;;;;;;4.93;3.50;;;;;;;;;;5044838;28;20594;-71
2021/04/12 10:18:45;;;;;;;4.47;4.03;;;;;;;;;;5073864;28;20585;-71
2021/04/12 10:21:56;;;;;;;4.30;3.80;;;;;;;;;;5040712;28;20617;-71
2021/04/12 10:25:24;;;;;;;3.90;3.53;;;;;;;;;;5073604;28;20586;-70
2021/04/12 10:28:34;;;;;;;10.33;7.80;;;;;;;;;;5073557;28;20641;-71
2021/04/12 10:31:54;;;;;;;6.40;5.33;;;;;;;;;;5073734;28;20945;-71
2021/04/12 10:35:00;;;;;;;10.57;9.23;;;;;;;;;;5072092;28;20586;-70
2021/04/12 10:38:19;;;;;;;5.20;4.70;;;;;;;;;;5056457;28;20587;-73
2021/04/12 10:41:34;;;;;;;6.83;4.53;;;;;;;;;;5049153;28;20582;-72
2021/04/12 10:44:44;;;;;;;4.10;3.40;;;;;;;;;;5061734;28;20988;-71
2021/04/12 10:48:17;;;;;;;5.27;3.70;;;;;;;;;;5053521;28;20602;-72
2021/04/12 10:51:36;;;;;;;4.57;4.13;;;;;;;;;;5059147;28;20633;-71
2021/04/12 10:55:22;;;;;;;4.27;3.87;;;;;;;;;;5058762;28;20594;-72
2021/04/12 10:58:36;;;;;;;6.37;4.70;;;;;;;;;;5041008;28;20578;-71
2021/04/12 11:01:46;;;;;;;6.43;4.80;;;;;;;;;;5030930;28;20583;-71
2021/04/12 11:05:18;;;;;;;5.00;4.30;;;;;;;;;;5069327;28;20627;-70
2021/04/12 11:08:51;;;;;;;5.20;4.40;;;;;;;;;;5040610;28;21084;-72
2021/04/12 11:12:07;;;;;;;4.53;3.90;;;;;;;;;;5060479;28;21183;-72
2021/04/12 11:15:39;;;;;;;4.40;3.93;;;;;;;;;;5072162;28;20586;-72
2021/04/12 11:19:51;;;;;;;4.90;4.00;;;;;;;;;;5060497;28;21109;-72
2021/04/12 11:23:04;;;;;;;3.67;3.33;;;;;;;;;;4977888;28;20559;-72
2021/04/12 11:26:20;;;;;;;4.33;3.40;;;;;;;;;;4994618;28;20961;-73
2021/04/12 11:29:29;;;;;;;3.67;3.10;;;;;;;;;;5045439;28;20630;-72
2021/04/12 11:32:55;;;;;;;3.93;3.57;;;;;;;;;;5077019;28;21159;-72
2021/04/12 11:36:16;;;;;;;5.00;4.50;;;;;;;;;;5056892;28;20527;-72
2021/04/12 11:39:20;;;;;;;5.10;4.60;;;;;;;;;;5069612;28;20657;-72
2021/04/12 11:42:31;;;;;;;21.27;15.87;;;;;;;;;;5076533;28;20559;-72
2021/04/12 11:46:29;;;;;;;10.67;8.17;;;;;;;;;;5064164;28;21179;-73
2021/04/12 11:49:44;;;;;;;4.27;3.70;;;;;;;;;;5048742;28;20993;-72
2021/04/12 11:53:18;;;;;;;5.50;5.00;;;;;;;;;;5059848;28;20594;-72
2021/04/12 11:56:36;;;;;;;4.00;3.50;;;;;;;;;;5047706;28;20961;-72
2021/04/12 12:00:05;;;;;;;5.23;3.97;;;;;;;;;;5056086;28;20619;-73
2021/04/12 12:03:51;;;;;;;4.47;4.07;;;;;;;;;;5050445;28;20593;-72
2021/04/12 12:07:33;;;;;;;4.67;4.07;;;;;;;;;;5054095;28;20582;-72
2021/04/12 12:10:40;;;;;;;4.67;4.10;;;;;;;;;;5076366;28;21088;-72
2021/04/12 12:14:11;;;;;;;6.23;4.40;;;;;;;;;;5056493;28;20866;-72
2021/04/12 12:17:22;;;;;;;5.80;4.07;;;;;;;;;;5049888;28;20613;-72
2021/04/12 12:20:35;;;;;;;5.03;3.93;;;;;;;;;;5063572;28;20716;-73
2021/04/12 12:23:40;;;;;;;4.27;3.87;;;;;;;;;;5044075;28;20587;-72
2021/04/12 12:27:09;;;;;;;5.37;4.50;;;;;;;;;;5051681;28;20609;-71
2021/04/12 12:30:29;;;;;;;5.40;4.90;;;;;;;;;;5074018;28;20653;-72
2021/04/12 12:33:55;;;;;;;34.37;23.87;;;;;;;;;;5062902;28;20621;-73
2021/04/12 12:37:02;;;;;;;33.30;26.10;;;;;;;;;;5084778;22;20692;-73
2021/04/12 12:40:17;;;;;;;6.83;6.13;;;;;;;;;;5111663;28;20623;-73
2021/04/12 12:43:29;;;;;;;6.87;5.70;;;;;;;;;;5112507;28;20594;-73
2021/04/12 12:46:36;;;;;;;5.27;4.10;;;;;;;;;;5093914;28;20577;-73
2021/04/12 12:49:52;;;;;;;7.87;7.07;;;;;;;;;;5095370;28;20624;-74
2021/04/12 12:53:00;;;;;;;20.23;11.93;;;;;;;;;;5083016;28;20546;-73
2021/04/12 12:56:10;;;;;;;7.73;6.67;;;;;;;;;;5056368;28;20592;-73
2021/04/12 12:59:25;;;;;;;10.80;7.47;;;;;;;;;;5095393;28;20620;-73
2021/04/12 13:02:36;;;;;;;8.50;7.57;;;;;;;;;;5095157;28;20596;-73
2021/04/12 13:05:40;;;;;;;9.53;6.17;;;;;;;;;;5075099;28;20633;-73
2021/04/12 13:08:58;;;;;;;4.87;3.77;;;;;;;;;;5113377;28;20623;-73
2021/04/12 13:12:14;;;;;;;5.03;4.50;;;;;;;;;;5075842;28;20539;-74
2021/04/12 13:15:37;;;;;;;6.90;4.30;;;;;;;;;;5080042;28;20912;-73
2021/04/12 13:18:42;;;;;;;5.40;4.27;;;;;;;;;;5074824;28;20649;-73
2021/04/12 13:21:58;;;;;;;10.03;8.97;;;;;;;;;;5051076;28;20590;-73
2021/04/12 13:25:28;;;;;;;10.47;7.80;;;;;;;;;;5074528;28;20602;-73
2021/04/12 13:28:41;;;;;;;6.57;5.87;;;;;;;;;;5075147;28;20613;-74
2021/04/12 13:31:57;;;;;;;5.97;5.27;;;;;;;;;;5074360;28;20593;-73
2021/04/12 13:34:51;;;;;;;4.83;3.97;;;;;;;;;;5012569;28;20668;-87
2021/04/12 13:38:03;;;;;;;4.27;3.87;;;;;;;;;;5005405;28;20615;-86
2021/04/12 13:41:16;;;;;;;5.50;4.57;;;;;;;;;;5020621;28;20568;-86
2021/04/12 13:44:24;;;;;;;5.97;4.53;;;;;;;;;;4992309;28;20589;-85
2021/04/12 13:47:42;;;;;;;6.33;4.93;;;;;;;;;;5003432;28;20652;-86
2021/04/12 13:51:00;;;;;;;12.60;9.27;;;;;;;;;;4970713;28;20566;-83
2021/04/12 13:54:26;;;;;;;36.00;20.67;;;;;;;;;;4960612;28;20554;-88
2021/04/12 13:57:39;;;;;;;54.60;27.40;;;;;;;;;;4959388;28;20628;-87
2021/04/12 14:00:53;;;;;;;49.10;23.67;;;;;;;;;;4992652;28;20562;-87
2021/04/12 14:04:20;;;;;;;5.60;5.00;;;;;;;;;;4984162;28;20566;-86
2021/04/12 14:07:42;;;;;;;4.43;4.03;;;;;;;;;;4970435;28;20629;-86
2021/04/12 14:11:00;;;;;;;5.33;4.10;;;;;;;;;;4972405;28;20554;-87
2021/04/12 14:14:14;;;;;;;5.40;4.03;;;;;;;;;;4972913;28;21021;-86
2021/04/12 14:17:55;;;;;;;8.73;6.93;;;;;;;;;;4983732;28;20625;-86
2021/04/12 14:21:06;;;;;;;9.10;7.27;;;;;;;;;;4974105;28;20558;-86
2021/04/12 14:24:23;;;;;;;13.93;12.60;;;;;;;;;;4973048;28;20550;-86
2021/04/12 14:27:42;;;;;;;20.47;18.37;;;;;;;;;;5000259;28;20660;-86
2021/04/12 14:30:48;;;;;;;10.90;7.80;;;;;;;;;;4982224;28;20600;-85
2021/04/12 14:34:00;;;;;;;8.10;7.23;;;;;;;;;;5005216;28;20611;-86
2021/04/12 14:37:07;;;;;;;7.37;5.57;;;;;;;;;;4994356;28;20645;-85
2021/04/12 14:40:29;;;;;;;19.23;10.10;;;;;;;;;;4993751;28;20596;-86
2021/04/12 14:43:54;;;;;;;41.57;17.93;;;;;;;;;;4997857;28;20948;-85
2021/04/12 14:47:00;;;;;;;13.47;9.30;;;;;;;;;;4993735;28;20617;-86
2021/04/12 14:50:11;;;;;;;41.13;22.27;;;;;;;;;;4992522;28;20596;-86
2021/04/12 14:53:21;;;;;;;48.87;30.13;;;;;;;;;;4980207;28;20561;-85
2021/04/12 14:56:28;;;;;;;189.07;89.13;;;;;;;;;;4972114;28;20550;-84
2021/04/12 14:59:43;;;;;;;42.77;29.37;;;;;;;;;;4995144;28;20561;-86
2021/04/12 15:02:50;;;;;;;57.50;40.73;;;;;;;;;;4984086;28;20546;-86
2021/04/12 15:06:00;;;;;;;16.10;11.90;;;;;;;;;;4982773;28;20657;-86
2021/04/12 15:09:12;;;;;;;8.90;6.17;;;;;;;;;;4993619;28;20558;-86
2021/04/12 15:12:23;;;;;;;7.20;5.30;;;;;;;;;;4974210;28;20644;-85
2021/04/12 15:15:43;;;;;;;6.90;5.10;;;;;;;;;;4996038;28;20581;-85
2021/04/12 15:18:50;;;;;;;7.00;5.73;;;;;;;;;;4988607;28;20568;-85
2021/04/12 15:22:01;;;;;;;7.30;6.07;;;;;;;;;;4988745;28;20967;-84
2021/04/12 15:25:36;;;;;;;7.17;5.70;;;;;;;;;;4988229;28;20640;-86
2021/04/12 15:28:40;;;;;;;7.10;5.00;;;;;;;;;;4977358;28;20651;-86
2021/04/12 15:31:51;;;;;;;5.03;4.33;;;;;;;;;;4988437;28;20592;-85
2021/04/12 15:35:16;;;;;;;8.80;7.90;;;;;;;;;;5000286;28;21107;-86
2021/04/12 15:38:24;;;;;;;10.43;7.47;;;;;;;;;;4988167;28;20620;-86
2021/04/12 15:41:31;;;;;;;7.53;6.83;;;;;;;;;;4999621;28;20576;-86
2021/04/12 15:44:41;;;;;;;5.93;5.20;;;;;;;;;;5000169;28;20604;-88
2021/04/12 15:47:47;;;;;;;6.67;5.27;;;;;;;;;;4999425;28;20615;-85
2021/04/12 15:51:02;;;;;;;6.33;5.10;;;;;;;;;;4999549;28;20564;-87
2021/04/12 15:54:16;;;;;;;12.43;9.17;;;;;;;;;;4988201;28;20928;-86
2021/04/12 15:57:22;;;;;;;10.97;8.10;;;;;;;;;;4977125;28;20612;-87
2021/04/12 16:00:32;;;;;;;8.70;6.77;;;;;;;;;;4999088;28;21098;-86
2021/04/12 16:03:50;;;;;;;6.93;5.93;;;;;;;;;;4988659;28;21107;-87
2021/04/12 16:07:13;;;;;;;12.13;8.77;;;;;;;;;;4987915;28;21039;-87
2021/04/12 16:10:27;;;;;;;17.00;11.50;;;;;;;;;;4988034;28;20913;-87
2021/04/12 16:13:46;;;;;;;18.87;11.17;;;;;;;;;;4971954;28;20684;-86
2021/04/12 16:16:52;;;;;;;19.73;14.03;;;;;;;;;;4972192;28;20965;-86
2021/04/12 16:20:40;;;;;;;10.03;6.83;;;;;;;;;;4978755;28;20600;-87
2021/04/12 16:24:07;;;;;;;6.47;4.87;;;;;;;;;;4972173;28;20550;-85
2021/04/12 16:27:34;;;;;;;6.80;5.70;;;;;;;;;;4983224;28;21494;-85
2021/04/12 16:30:44;;;;;;;7.40;4.67;;;;;;;;;;4961460;28;20550;-86
2021/04/12 16:33:50;;;;;;;5.03;4.27;;;;;;;;;;4995407;28;20616;-87
2021/04/12 16:37:01;;;;;;;6.53;5.83;;;;;;;;;;4990016;28;20655;-88
2021/04/12 16:40:17;;;;;;;8.60;6.43;;;;;;;;;;4992051;28;20986;-88
2021/04/12 16:43:28;;;;;;;8.70;6.03;;;;;;;;;;4991795;28;20561;-88
2021/04/12 16:47:06;;;;;;;5.93;5.33;;;;;;;;;;5003032;28;20731;-88
2021/04/12 16:50:13;;;;;;;7.27;6.20;;;;;;;;;;4980460;28;20557;-88
2021/04/12 16:53:31;;;;;;;5.17;4.33;;;;;;;;;;5003222;28;20560;-89
2021/04/12 16:56:44;;;;;;;6.47;4.93;;;;;;;;;;4983119;28;20577;-87
2021/04/12 17:00:30;;;;;;;5.63;4.70;;;;;;;;;;4984557;28;20561;-87
2021/04/12 17:03:53;;;;;;;9.23;6.70;;;;;;;;;;4964908;28;20612;-88
2021/04/12 17:07:12;;;;;;;6.63;5.70;;;;;;;;;;4982668;28;21568;-86
2021/04/12 17:10:49;;;;;;;7.43;5.10;;;;;;;;;;4972558;28;20569;-87
2021/04/12 17:14:00;;;;;;;7.93;5.67;;;;;;;;;;4971929;28;20565;-87
2021/04/12 17:17:37;;;;;;;9.10;6.53;;;;;;;;;;4982438;28;20621;-87
2021/04/12 17:20:47;;;;;;;10.47;7.30;;;;;;;;;;5012652;28;20591;-86
2021/04/12 17:23:56;;;;;;;9.10;6.63;;;;;;;;;;5032823;28;20559;-87
2021/04/12 17:27:03;;;;;;;9.40;7.27;;;;;;;;;;5010143;28;20678;-87
2021/04/12 17:30:27;;;;;;;7.83;6.17;;;;;;;;;;4994422;28;20588;-86
2021/04/12 17:33:45;;;;;;;7.47;6.23;;;;;;;;;;4990129;28;20624;-86
2021/04/12 17:36:59;;;;;;;7.73;6.50;;;;;;;;;;4990510;28;20624;-87
2021/04/12 17:40:25;;;;;;;7.73;6.30;;;;;;;;;;4990186;28;20624;-87
2021/04/12 17:43:57;;;;;;;7.67;6.10;;;;;;;;;;4992360;28;20569;-87
2021/04/12 17:47:09;;;;;;;7.77;6.20;;;;;;;;;;4978449;28;20656;-86
2021/04/12 17:50:30;;;;;;;10.70;6.87;;;;;;;;;;4989767;28;20573;-85
2021/04/12 17:53:36;;;;;;;10.17;7.77;;;;;;;;;;4989682;28;20604;-86
2021/04/12 17:57:01;;;;;;;9.87;7.33;;;;;;;;;;4991390;28;20628;-87
2021/04/12 18:00:11;;;;;;;9.17;7.00;;;;;;;;;;4999026;28;20597;-86
2021/04/12 18:03:22;;;;;;;12.27;9.53;;;;;;;;;;4988463;28;20565;-86
2021/04/12 18:06:33;;;;;;;14.83;7.80;;;;;;;;;;4987585;28;20628;-86
2021/04/12 18:09:44;;;;;;;25.00;9.70;;;;;;;;;;4988085;28;20577;-86
2021/04/12 18:13:05;;;;;;;10.07;8.37;;;;;;;;;;4988970;28;21154;-86
2021/04/12 18:16:21;;;;;;;10.57;8.30;;;;;;;;;;4979395;28;20598;-86
2021/04/12 18:19:38;;;;;;;10.87;8.87;;;;;;;;;;4979441;28;20570;-86
2021/04/12 18:22:46;;;;;;;10.57;8.60;;;;;;;;;;4979327;28;20566;-86
2021/04/12 18:25:57;;;;;;;10.27;8.80;;;;;;;;;;4987077;28;21024;-86
2021/04/12 18:29:13;;;;;;;12.30;9.27;;;;;;;;;;5006046;28;21153;-85
2021/04/12 18:32:26;;;;;;;11.43;9.57;;;;;;;;;;4988030;28;20628;-86
2021/04/12 18:35:46;;;;;;;10.77;8.43;;;;;;;;;;4998297;28;20592;-85
2021/04/12 18:39:02;;;;;;;11.57;9.33;;;;;;;;;;5000030;28;20565;-86
2021/04/12 18:42:27;;;;;;;11.47;8.93;;;;;;;;;;4987020;28;20588;-85
2021/04/12 18:45:49;;;;;;;11.97;9.03;;;;;;;;;;4988092;28;20604;-86
2021/04/12 18:48:59;;;;;;;14.97;9.97;;;;;;;;;;4982668;28;20585;-86
2021/04/12 18:52:22;;;;;;;15.27;9.50;;;;;;;;;;4988496;28;20600;-86
2021/04/12 18:55:38;;;;;;;14.00;9.73;;;;;;;;;;4988348;28;20593;-85
2021/04/12 18:59:08;;;;;;;12.93;10.20;;;;;;;;;;4968311;28;20613;-86
2021/04/12 19:02:15;;;;;;;12.80;9.30;;;;;;;;;;4978965;28;20541;-86
2021/04/12 19:05:57;;;;;;;15.03;10.93;;;;;;;;;;4987764;28;20632;-86
2021/04/12 19:09:08;;;;;;;12.97;10.00;;;;;;;;;;4996711;28;20600;-86
2021/04/12 19:12:35;;;;;;;12.60;10.20;;;;;;;;;;4986492;28;20588;-86
2021/04/12 19:15:58;;;;;;;15.87;11.90;;;;;;;;;;4986414;28;20584;-86
2021/04/12 19:19:30;;;;;;;15.47;11.10;;;;;;;;;;4990467;28;20561;-85
2021/04/12 19:23:01;;;;;;;14.93;11.23;;;;;;;;;;4992036;28;20961;-85
2021/04/12 19:26:37;;;;;;;16.33;11.73;;;;;;;;;;4992349;28;20564;-85
2021/04/12 19:30:06;;;;;;;16.77;11.37;;;;;;;;;;4980897;28;20598;-84
2021/04/12 19:33:23;;;;;;;16.30;11.90;;;;;;;;;;5003492;28;20631;-85
2021/04/12 19:37:07;;;;;;;15.70;12.43;;;;;;;;;;5003856;28;20932;-84
2021/04/12 19:40:16;;;;;;;14.77;11.47;;;;;;;;;;4989165;28;21336;-86
2021/04/12 19:43:28;;;;;;;15.73;12.00;;;;;;;;;;4989633;28;20578;-86
2021/04/12 19:46:40;;;;;;;18.27;13.00;;;;;;;;;;4992193;28;20612;-86
2021/04/12 19:49:57;;;;;;;16.07;12.10;;;;;;;;;;4982548;28;20578;-86
2021/04/12 19:53:32;;;;;;;17.10;12.40;;;;;;;;;;4995291;28;20611;-86
2021/04/12 19:57:03;;;;;;;18.40;13.40;;;;;;;;;;4988287;28;20916;-85
2021/04/12 20:00:27;;;;;;;17.20;12.00;;;;;;;;;;4999491;28;20605;-85
2021/04/12 20:03:45;;;;;;;20.40;13.17;;;;;;;;;;4986660;28;20592;-87
2021/04/12 20:06:57;;;;;;;17.10;13.20;;;;;;;;;;5010151;28;20659;-85
2021/04/12 20:10:18;;;;;;;15.83;12.80;;;;;;;;;;4975716;28;20934;-85